This is the latest recevied weather packets stored in our database for station/object HP1COO-13. If no packets are shown the sender has not sent any weather packets the latest 10 day(s).
| Time | Temp. | Humidity | Pressure | Rain* | Wind** | Luminosity | Snow |
|---|---|---|---|---|---|---|---|
| 1778091625 | 32.22° C | 72% | 1008.7 hPa | 0 mm | - | - | - |
| 1778091022 | 32.22° C | 70% | 1008.8 hPa | 0 mm | - | - | - |
| 1778087429 | 32.22° C | 72% | 1009.6 hPa | 0 mm | - | - | - |
| 1778084417 | 32.78° C | 69% | 1009.9 hPa | 0 mm | - | - | - |
| 1778083835 | 32.78° C | 70% | 1010.1 hPa | 0 mm | - | - | - |
| 1778082028 | 32.78° C | 69% | 1010.3 hPa | 0 mm | - | - | - |
| 1778080221 | 32.78° C | 68% | 1010.2 hPa | 0 mm | - | - | - |
| 1778079016 | 32.22° C | 70% | 1010.2 hPa | 0 mm | - | - | - |
| 1778077831 | 31.67° C | 73% | 1010 hPa | 0 mm | - | - | - |
| 1778073056 | 29.44° C | 82% | 1009.5 hPa | 0 mm | - | - | - |
| 1778071228 | 27.78° C | 86% | 1009.7 hPa | 0 mm | - | - | - |
| 1778069421 | 26.67° C | 93% | 1009.8 hPa | 0 mm | - | - | - |
| 1778067654 | 25.56° C | 94% | 1009.4 hPa | 0 mm | - | - | - |
| 1778065224 | 25.56° C | 96% | 1009.2 hPa | 0 mm | - | - | - |
| 1778061941 | 25° C | 97% | 1008.7 hPa | 0 mm | - | - | - |
| 1778055616 | 25° C | 97% | 1008.3 hPa | 0 mm | - | - | - |
| 1778046926 | 25.56° C | 97% | 1009 hPa | 0 mm | - | - | - |
| 1778042730 | 26.11° C | 95% | 1010.1 hPa | 0 mm | - | - | - |
| 1778038534 | 26.67° C | 95% | 1010.1 hPa | 0 mm | - | - | - |
| 1778030121 | 26.11° C | 99% | 1009.1 hPa | 0 mm | - | - | - |
| 1778026528 | 26.67° C | 99% | 1008.3 hPa | 0 mm | - | - | - |
| 1778022933 | 26.11° C | 99% | 1007.6 hPa | 22.86 mm | - | - | - |
| 1778016929 | 29.44° C | 83% | 1007.1 hPa | 0 mm | - | - | - |
| 1778013335 | 28.89° C | 90% | 1007.3 hPa | 0 mm | - | - | - |
| 1778007332 | 26.67° C | 96% | 1008.3 hPa | 9.14 mm | - | - | - |
* Rain latest hour (hover to see other rain measurements)
** Current wind speed in m/s (hover to see current wind gust speed)